sensor_id;sensor_type;location;lat;lon;timestamp;pressure;altitude;pressure_sealevel;temperature;humidity
44144;BME280;68165;51.920;4.492;2023-05-21T00:02:15;67783.88;;;17.40;67.92
44144;BME280;68165;51.920;4.492;2023-05-21T00:04:42;67784.28;;;17.38;67.83
44144;BME280;68165;51.920;4.492;2023-05-21T00:07:08;67781.06;;;17.38;67.52
44144;BME280;68165;51.920;4.492;2023-05-21T00:09:35;67784.69;;;17.36;67.67
44144;BME280;68165;51.920;4.492;2023-05-21T00:12:06;67773.78;;;17.31;67.59
44144;BME280;68165;51.920;4.492;2023-05-21T00:14:47;67781.47;;;17.36;67.88
44144;BME280;68165;51.920;4.492;2023-05-21T00:17:13;67774.91;;;17.32;67.72
44144;BME280;68165;51.920;4.492;2023-05-21T00:19:38;67769.69;;;17.25;68.35
44144;BME280;68165;51.920;4.492;2023-05-21T00:22:04;67763.66;;;17.22;68.91
44144;BME280;68165;51.920;4.492;2023-05-21T00:24:30;67763.53;;;17.20;69.06
44144;BME280;68165;51.920;4.492;2023-05-21T00:26:55;67755.41;;;17.17;69.75
44144;BME280;68165;51.920;4.492;2023-05-21T00:29:21;67763.34;;;17.17;70.31
44144;BME280;68165;51.920;4.492;2023-05-21T00:31:47;67756.22;;;17.13;71.22
44144;BME280;68165;51.920;4.492;2023-05-21T00:34:12;67759.44;;;17.13;72.00
44144;BME280;68165;51.920;4.492;2023-05-21T00:36:38;67756.63;;;17.11;72.63
44144;BME280;68165;51.920;4.492;2023-05-21T00:39:05;67765.44;;;17.17;73.27
44144;BME280;68165;51.920;4.492;2023-05-21T00:41:30;67761.69;;;17.16;73.47
44144;BME280;68165;51.920;4.492;2023-05-21T00:43:56;67763.66;;;17.22;73.72
44144;BME280;68165;51.920;4.492;2023-05-21T00:46:24;67771.22;;;17.24;74.00
44144;BME280;68165;51.920;4.492;2023-05-21T00:48:53;67768.00;;;17.24;74.55
44144;BME280;68165;51.920;4.492;2023-05-21T00:51:19;67775.28;;;17.30;74.46
44144;BME280;68165;51.920;4.492;2023-05-21T00:53:49;67782.59;;;17.37;74.54
44144;BME280;68165;51.920;4.492;2023-05-21T00:56:15;67781.06;;;17.38;75.06
44144;BME280;68165;51.920;4.492;2023-05-21T00:58:41;67790.28;;;17.41;75.12
44144;BME280;68165;51.920;4.492;2023-05-21T01:01:07;67780.50;;;17.37;75.81
44144;BME280;68165;51.920;4.492;2023-05-21T01:03:38;67791.00;;;17.44;75.61
44144;BME280;68165;51.920;4.492;2023-05-21T01:06:04;67794.22;;;17.45;76.13
44144;BME280;68165;51.920;4.492;2023-05-21T01:08:30;67796.31;;;17.44;76.23
44144;BME280;68165;51.920;4.492;2023-05-21T01:10:57;67793.25;;;17.46;76.30
44144;BME280;68165;51.920;4.492;2023-05-21T01:13:23;67794.38;;;17.47;76.46
44144;BME280;68165;51.920;4.492;2023-05-21T01:15:51;67799.09;;;17.47;76.77
44144;BME280;68165;51.920;4.492;2023-05-21T01:18:17;67792.69;;;17.46;76.90
44144;BME280;68165;51.920;4.492;2023-05-21T01:20:44;67788.38;;;17.44;77.40
44144;BME280;68165;51.920;4.492;2023-05-21T01:23:14;67800.41;;;17.50;77.47
44144;BME280;68165;51.920;4.492;2023-05-21T01:25:41;67791.72;;;17.47;77.56
44144;BME280;68165;51.920;4.492;2023-05-21T01:28:06;67796.63;;;17.49;78.00
44144;BME280;68165;51.920;4.492;2023-05-21T01:30:32;67796.06;;;17.49;78.02
44144;BME280;68165;51.920;4.492;2023-05-21T01:33:17;67801.25;;;17.56;78.27
44144;BME280;68165;51.920;4.492;2023-05-21T01:35:59;67797.88;;;17.53;78.43
44144;BME280;68165;51.920;4.492;2023-05-21T01:38:37;67802.78;;;17.55;78.41
44144;BME280;68165;51.920;4.492;2023-05-21T01:41:19;67808.78;;;17.58;78.71
44144;BME280;68165;51.920;4.492;2023-05-21T01:43:45;67804.31;;;17.54;78.77
44144;BME280;68165;51.920;4.492;2023-05-21T01:46:13;67795.09;;;17.50;79.09
44144;BME280;68165;51.920;4.492;2023-05-21T01:48:42;67798.31;;;17.51;78.93
44144;BME280;68165;51.920;4.492;2023-05-21T01:51:07;67799.28;;;17.49;79.03
44144;BME280;68165;51.920;4.492;2023-05-21T01:53:33;67796.63;;;17.49;79.36
44144;BME280;68165;51.920;4.492;2023-05-21T01:55:59;67802.78;;;17.55;79.24
44144;BME280;68165;51.920;4.492;2023-05-21T01:58:24;67801.25;;;17.56;79.39
44144;BME280;68165;51.920;4.492;2023-05-21T02:00:50;67801.81;;;17.57;79.51
44144;BME280;68165;51.920;4.492;2023-05-21T02:03:18;67806.72;;;17.59;79.71
44144;BME280;68165;51.920;4.492;2023-05-21T02:05:43;67802.94;;;17.58;79.54
44144;BME280;68165;51.920;4.492;2023-05-21T02:08:09;67806.34;;;17.61;79.66
44144;BME280;68165;51.920;4.492;2023-05-21T02:10:35;67808.59;;;17.63;79.67
44144;BME280;68165;51.920;4.492;2023-05-21T02:13:00;67806.91;;;17.61;79.82
44144;BME280;68165;51.920;4.492;2023-05-21T02:15:26;67806.56;;;17.56;79.96
44144;BME280;68165;51.920;4.492;2023-05-21T02:17:51;67804.06;;;17.59;80.32
44144;BME280;68165;51.920;4.492;2023-05-21T02:20:18;67805.59;;;17.58;80.54
44144;BME280;68165;51.920;4.492;2023-05-21T02:22:45;67809.34;;;17.59;80.50
44144;BME280;68165;51.920;4.492;2023-05-21T02:25:12;67805.59;;;17.58;80.76
44144;BME280;68165;51.920;4.492;2023-05-21T02:27:39;67804.47;;;17.57;81.02
44144;BME280;68165;51.920;4.492;2023-05-21T02:30:07;67804.47;;;17.57;81.08
44144;BME280;68165;51.920;4.492;2023-05-21T02:32:33;67801.81;;;17.57;81.48
44144;BME280;68165;51.920;4.492;2023-05-21T02:35:01;67805.44;;;17.55;81.45
44144;BME280;68165;51.920;4.492;2023-05-21T02:37:28;67805.59;;;17.58;81.50
44144;BME280;68165;51.920;4.492;2023-05-21T02:39:54;67808.97;;;17.61;81.46
44144;BME280;68165;51.920;4.492;2023-05-21T02:42:23;67798.44;;;17.53;81.80
44144;BME280;68165;51.920;4.492;2023-05-21T02:44:49;67791.72;;;17.47;82.05
44144;BME280;68165;51.920;4.492;2023-05-21T02:47:17;67790.44;;;17.44;82.24
44144;BME280;68165;51.920;4.492;2023-05-21T02:49:42;67791.16;;;17.47;82.32
44144;BME280;68165;51.920;4.492;2023-05-21T02:52:08;67795.09;;;17.50;82.37
44144;BME280;68165;51.920;4.492;2023-05-21T02:54:33;67795.91;;;17.46;82.85
44144;BME280;68165;51.920;4.492;2023-05-21T02:56:58;67791.56;;;17.45;82.75
44144;BME280;68165;51.920;4.492;2023-05-21T02:59:24;67795.31;;;17.46;82.75
44144;BME280;68165;51.920;4.492;2023-05-21T03:01:49;67789.88;;;17.43;83.11
44144;BME280;68165;51.920;4.492;2023-05-21T03:04:15;67794.22;;;17.45;83.17
44144;BME280;68165;51.920;4.492;2023-05-21T03:06:49;67786.50;;;17.40;83.19
44144;BME280;68165;51.920;4.492;2023-05-21T03:09:22;67786.69;;;17.43;83.27
44144;BME280;68165;51.920;4.492;2023-05-21T03:11:50;67788.59;;;17.40;83.89
44144;BME280;68165;51.920;4.492;2023-05-21T03:14:16;67786.13;;;17.42;83.50
44144;BME280;68165;51.920;4.492;2023-05-21T03:16:41;67789.88;;;17.43;83.72
44144;BME280;68165;51.920;4.492;2023-05-21T03:19:08;67787.25;;;17.43;83.74
44144;BME280;68165;51.920;4.492;2023-05-21T03:21:34;67787.25;;;17.43;84.04
44144;BME280;68165;51.920;4.492;2023-05-21T03:24:00;67783.56;;;17.35;84.43
44144;BME280;68165;51.920;4.492;2023-05-21T03:26:26;67779.94;;;17.37;84.72
44144;BME280;68165;51.920;4.492;2023-05-21T03:28:53;67778.81;;;17.36;84.95
44144;BME280;68165;51.920;4.492;2023-05-21T03:31:19;67785.56;;;17.42;84.88
44144;BME280;68165;51.920;4.492;2023-05-21T03:33:44;67790.44;;;17.44;84.77
44144;BME280;68165;51.920;4.492;2023-05-21T03:36:10;67784.44;;;17.41;85.00
44144;BME280;68165;51.920;4.492;2023-05-21T03:38:35;67786.69;;;17.43;85.03
44144;BME280;68165;51.920;4.492;2023-05-21T03:41:00;67785.41;;;17.39;85.09
44144;BME280;68165;51.920;4.492;2023-05-21T03:43:26;67778.25;;;17.35;85.59
44144;BME280;68165;51.920;4.492;2023-05-21T03:45:53;67785.81;;;17.37;85.73
44144;BME280;68165;51.920;4.492;2023-05-21T03:48:19;67780.50;;;17.37;85.62
44144;BME280;68165;51.920;4.492;2023-05-21T03:50:44;67785.56;;;17.42;85.62
44144;BME280;68165;51.920;4.492;2023-05-21T03:53:11;67783.31;;;17.40;85.91
44144;BME280;68165;51.920;4.492;2023-05-21T03:55:36;67790.16;;;17.39;86.12
44144;BME280;68165;51.920;4.492;2023-05-21T03:58:02;67782.75;;;17.39;86.39
44144;BME280;68165;51.920;4.492;2023-05-21T04:00:27;67784.69;;;17.36;86.32
44144;BME280;68165;51.920;4.492;2023-05-21T04:02:53;67778.81;;;17.36;86.16
44144;BME280;68165;51.920;4.492;2023-05-21T04:05:18;67788.75;;;17.42;86.47
44144;BME280;68165;51.920;4.492;2023-05-21T04:07:45;67784.44;;;17.41;86.74
44144;BME280;68165;51.920;4.492;2023-05-21T04:10:11;67787.63;;;17.41;86.69
44144;BME280;68165;51.920;4.492;2023-05-21T04:12:36;67786.38;;;17.38;86.89
44144;BME280;68165;51.920;4.492;2023-05-21T04:15:02;67786.38;;;17.38;87.07
44144;BME280;68165;51.920;4.492;2023-05-21T04:17:27;67783.72;;;17.38;87.17
44144;BME280;68165;51.920;4.492;2023-05-21T04:19:53;67782.19;;;17.39;87.13
44144;BME280;68165;51.920;4.492;2023-05-21T04:22:18;67790.28;;;17.41;87.12
44144;BME280;68165;51.920;4.492;2023-05-21T04:24:44;67784.84;;;17.39;87.31
44144;BME280;68165;51.920;4.492;2023-05-21T04:27:10;67784.44;;;17.41;87.76
44144;BME280;68165;51.920;4.492;2023-05-21T04:29:38;67786.50;;;17.40;87.46
44144;BME280;68165;51.920;4.492;2023-05-21T04:32:07;67787.38;;;17.46;87.67
44144;BME280;68165;51.920;4.492;2023-05-21T04:34:32;67797.59;;;17.48;87.25
44144;BME280;68165;51.920;4.492;2023-05-21T04:36:58;67795.09;;;17.50;87.21
44144;BME280;68165;51.920;4.492;2023-05-21T04:39:25;67793.97;;;17.49;87.11
44144;BME280;68165;51.920;4.492;2023-05-21T04:41:50;67806.16;;;17.58;87.10
44144;BME280;68165;51.920;4.492;2023-05-21T04:44:19;67809.69;;;17.64;87.01
44144;BME280;68165;51.920;4.492;2023-05-21T04:46:44;67815.31;;;17.69;86.87
44144;BME280;68165;51.920;4.492;2023-05-21T04:49:10;67817.97;;;17.69;86.75
44144;BME280;68165;51.920;4.492;2023-05-21T04:51:35;67815.88;;;17.69;86.90
44144;BME280;68165;51.920;4.492;2023-05-21T04:54:02;67825.09;;;17.73;86.40
44144;BME280;68165;51.920;4.492;2023-05-21T04:56:28;67823.16;;;17.76;86.56
44144;BME280;68165;51.920;4.492;2023-05-21T04:58:53;67824.28;;;17.77;86.44
44144;BME280;68165;51.920;4.492;2023-05-21T05:01:19;67825.41;;;17.78;86.51
44144;BME280;68165;51.920;4.492;2023-05-21T05:03:49;67828.78;;;17.81;86.43
44144;BME280;68165;51.920;4.492;2023-05-21T05:06:15;67829.88;;;17.82;86.23
44144;BME280;68165;51.920;4.492;2023-05-21T05:08:41;67829.88;;;17.82;86.20
44144;BME280;68165;51.920;4.492;2023-05-21T05:11:07;67831.00;;;17.83;86.26
44144;BME280;68165;51.920;4.492;2023-05-21T05:13:33;67832.69;;;17.84;86.10
44144;BME280;68165;51.920;4.492;2023-05-21T05:15:59;67837.59;;;17.86;86.15
44144;BME280;68165;51.920;4.492;2023-05-21T05:18:24;67842.09;;;17.90;85.78
44144;BME280;68165;51.920;4.492;2023-05-21T05:20:50;67847.69;;;17.95;85.77
44144;BME280;68165;51.920;4.492;2023-05-21T05:23:15;67847.84;;;17.98;85.61
44144;BME280;68165;51.920;4.492;2023-05-21T05:25:41;67850.09;;;18.00;85.47
44144;BME280;68165;51.920;4.492;2023-05-21T05:28:06;67856.13;;;18.03;85.26
44144;BME280;68165;51.920;4.492;2023-05-21T05:30:31;67857.38;;;18.07;85.22
44144;BME280;68165;51.920;4.492;2023-05-21T05:32:57;67860.78;;;18.10;84.97
44144;BME280;68165;51.920;4.492;2023-05-21T05:35:22;67872.25;;;18.15;84.67
44144;BME280;68165;51.920;4.492;2023-05-21T05:37:47;67867.50;;;18.16;84.39
44144;BME280;68165;51.920;4.492;2023-05-21T05:40:13;67881.22;;;18.23;84.27
44144;BME280;68165;51.920;4.492;2023-05-21T05:42:38;67881.94;;;18.26;83.91
44144;BME280;68165;51.920;4.492;2023-05-21T05:45:04;67889.06;;;18.30;83.98
44144;BME280;68165;51.920;4.492;2023-05-21T05:47:30;67893.88;;;18.40;83.43
44144;BME280;68165;51.920;4.492;2023-05-21T05:49:55;67905.50;;;18.48;82.93
44144;BME280;68165;51.920;4.492;2023-05-21T05:52:21;67912.25;;;18.54;82.73
44144;BME280;68165;51.920;4.492;2023-05-21T05:54:46;67919.56;;;18.60;82.46
44144;BME280;68165;51.920;4.492;2023-05-21T05:57:12;67923.09;;;18.66;82.30
44144;BME280;68165;51.920;4.492;2023-05-21T05:59:37;67935.88;;;18.75;82.05
44144;BME280;68165;51.920;4.492;2023-05-21T06:02:02;67952.56;;;18.88;81.68
44144;BME280;68165;51.920;4.492;2023-05-21T06:04:28;67966.59;;;19.00;81.07
44144;BME280;68165;51.920;4.492;2023-05-21T06:06:57;67976.16;;;19.09;80.52
44144;BME280;68165;51.920;4.492;2023-05-21T06:09:23;67983.03;;;19.17;80.37
44144;BME280;68165;51.920;4.492;2023-05-21T06:11:49;67995.25;;;19.26;79.89
44144;BME280;68165;51.920;4.492;2023-05-21T06:14:14;67998.38;;;19.34;79.64
44144;BME280;68165;51.920;4.492;2023-05-21T06:16:40;68004.81;;;19.35;79.24
44144;BME280;68165;51.920;4.492;2023-05-21T06:19:05;68006.22;;;19.41;79.10
44144;BME280;68165;51.920;4.492;2023-05-21T06:21:31;68007.75;;;19.40;78.93
44144;BME280;68165;51.920;4.492;2023-05-21T06:23:56;68024.63;;;19.55;78.65
44144;BME280;68165;51.920;4.492;2023-05-21T06:26:21;68031.53;;;19.64;78.19
44144;BME280;68165;51.920;4.492;2023-05-21T06:28:48;68037.16;;;19.69;77.99
44144;BME280;68165;51.920;4.492;2023-05-21T06:31:13;68048.25;;;19.76;77.69
44144;BME280;68165;51.920;4.492;2023-05-21T06:33:40;68063.97;;;19.90;77.16
44144;BME280;68165;51.920;4.492;2023-05-21T06:36:05;68077.06;;;20.05;76.79
44144;BME280;68165;51.920;4.492;2023-05-21T06:38:30;68091.69;;;20.18;76.04
44144;BME280;68165;51.920;4.492;2023-05-21T06:40:56;68116.69;;;20.35;75.21
44144;BME280;68165;51.920;4.492;2023-05-21T06:43:22;68124.88;;;20.48;74.89
44144;BME280;68165;51.920;4.492;2023-05-21T06:45:48;68158.03;;;20.77;73.58
44144;BME280;68165;51.920;4.492;2023-05-21T06:48:14;68183.63;;;20.96;72.51
44144;BME280;68165;51.920;4.492;2023-05-21T06:50:41;68185.88;;;20.98;71.71
44144;BME280;68165;51.920;4.492;2023-05-21T06:53:06;68180.97;;;20.96;71.57
44144;BME280;68165;51.920;4.492;2023-05-21T06:55:32;68190.94;;;21.02;71.51
44144;BME280;68165;51.920;4.492;2023-05-21T06:57:57;68196.28;;;21.12;71.02
44144;BME280;68165;51.920;4.492;2023-05-21T07:00:23;68210.94;;;21.25;69.96
44144;BME280;68165;51.920;4.492;2023-05-21T07:02:48;68221.06;;;21.34;69.63
44144;BME280;68165;51.920;4.492;2023-05-21T07:05:13;68250.03;;;21.55;68.32
44144;BME280;68165;51.920;4.492;2023-05-21T07:07:39;68252.59;;;21.63;67.48
44144;BME280;68165;51.920;4.492;2023-05-21T07:10:05;68255.97;;;21.66;66.08
44144;BME280;68165;51.920;4.492;2023-05-21T07:12:30;68255.81;;;21.63;65.62
44144;BME280;68165;51.920;4.492;2023-05-21T07:14:55;68241.47;;;21.55;65.84
44144;BME280;68165;51.920;4.492;2023-05-21T07:17:21;68236.81;;;21.48;65.97
44144;BME280;68165;51.920;4.492;2023-05-21T07:19:46;68231.19;;;21.43;66.25
44144;BME280;68165;51.920;4.492;2023-05-21T07:22:12;68226.56;;;21.37;66.02
44144;BME280;68165;51.920;4.492;2023-05-21T07:24:37;68212.63;;;21.27;65.96
44144;BME280;68165;51.920;4.492;2023-05-21T07:27:03;68203.78;;;21.21;65.85
44144;BME280;68165;51.920;4.492;2023-05-21T07:29:30;68178.88;;;20.96;66.72
44144;BME280;68165;51.920;4.492;2023-05-21T07:31:55;68173.50;;;20.87;67.04
44144;BME280;68165;51.920;4.492;2023-05-21T07:34:21;68157.63;;;20.79;67.89
44144;BME280;68165;51.920;4.492;2023-05-21T07:36:46;68179.28;;;20.94;67.43
44144;BME280;68165;51.920;4.492;2023-05-21T07:39:11;68197.41;;;21.13;66.85
44144;BME280;68165;51.920;4.492;2023-05-21T07:41:37;68210.38;;;21.25;66.63
44144;BME280;68165;51.920;4.492;2023-05-21T07:44:02;68230.63;;;21.43;66.19
44144;BME280;68165;51.920;4.492;2023-05-21T07:46:27;68255.25;;;21.63;65.44
44144;BME280;68165;51.920;4.492;2023-05-21T07:48:53;68280.59;;;21.85;64.51
44144;BME280;68165;51.920;4.492;2023-05-21T07:51:18;68281.44;;;21.91;64.56
44144;BME280;68165;51.920;4.492;2023-05-21T07:53:44;68286.34;;;21.93;63.86
44144;BME280;68165;51.920;4.492;2023-05-21T07:56:09;68291.69;;;21.93;63.88
44144;BME280;68165;51.920;4.492;2023-05-21T07:58:34;68295.09;;;21.96;64.00
44144;BME280;68165;51.920;4.492;2023-05-21T08:01:00;68299.88;;;22.05;63.53
44144;BME280;68165;51.920;4.492;2023-05-21T08:03:26;68322.81;;;22.23;62.96
44144;BME280;68165;51.920;4.492;2023-05-21T08:05:57;68343.25;;;22.44;62.15
44144;BME280;68165;51.920;4.492;2023-05-21T08:08:22;68360.69;;;22.60;61.49
44144;BME280;68165;51.920;4.492;2023-05-21T08:10:48;68361.66;;;22.58;61.21
44144;BME280;68165;51.920;4.492;2023-05-21T08:13:14;68352.69;;;22.50;60.94
44144;BME280;68165;51.920;4.492;2023-05-21T08:15:40;68342.13;;;22.43;60.53
44144;BME280;68165;51.920;4.492;2023-05-21T08:18:06;68324.66;;;22.27;60.78
44144;BME280;68165;51.920;4.492;2023-05-21T08:20:31;68321.28;;;22.24;61.26
44144;BME280;68165;51.920;4.492;2023-05-21T08:22:59;68337.63;;;22.39;61.33
44144;BME280;68165;51.920;4.492;2023-05-21T08:25:25;68373.50;;;22.69;60.41
44144;BME280;68165;51.920;4.492;2023-05-21T08:27:51;68380.88;;;22.75;59.68
44144;BME280;68165;51.920;4.492;2023-05-21T08:30:16;68387.06;;;22.81;59.68
44144;BME280;68165;51.920;4.492;2023-05-21T08:32:42;68390.00;;;22.86;59.35
44144;BME280;68165;51.920;4.492;2023-05-21T08:35:08;68396.06;;;22.89;58.82
44144;BME280;68165;51.920;4.492;2023-05-21T08:37:33;68389.44;;;22.86;58.68
44144;BME280;68165;51.920;4.492;2023-05-21T08:39:59;68420.44;;;23.13;57.96
44144;BME280;68165;51.920;4.492;2023-05-21T08:42:44;68469.19;;;23.52;56.64
44144;BME280;68165;51.920;4.492;2023-05-21T08:45:13;68493.59;;;23.77;55.44
44144;BME280;68165;51.920;4.492;2023-05-21T08:47:43;68506.69;;;23.91;53.81
44144;BME280;68165;51.920;4.492;2023-05-21T08:50:10;68507.81;;;23.92;53.42
44144;BME280;68165;51.920;4.492;2023-05-21T08:52:36;68525.28;;;24.08;52.82
44144;BME280;68165;51.920;4.492;2023-05-21T08:55:06;68530.94;;;24.13;52.19
44144;BME280;68165;51.920;4.492;2023-05-21T08:57:32;68546.44;;;24.22;51.71
44144;BME280;68165;51.920;4.492;2023-05-21T08:59:58;68534.47;;;24.18;51.41
44144;BME280;68165;51.920;4.492;2023-05-21T09:02:24;68555.63;;;24.32;51.20
44144;BME280;68165;51.920;4.492;2023-05-21T09:04:53;68564.78;;;24.43;50.99
44144;BME280;68165;51.920;4.492;2023-05-21T09:07:24;68567.03;;;24.45;50.57
44144;BME280;68165;51.920;4.492;2023-05-21T09:09:56;68542.66;;;24.21;50.56
44144;BME280;68165;51.920;4.492;2023-05-21T09:12:23;68520.22;;;24.03;50.55
44144;BME280;68165;51.920;4.492;2023-05-21T09:14:50;68509.50;;;23.93;50.87
44144;BME280;68165;51.920;4.492;2023-05-21T09:17:16;68519.66;;;24.02;50.76
44144;BME280;68165;51.920;4.492;2023-05-21T09:20:08;68541.50;;;24.20;50.20
44144;BME280;68165;51.920;4.492;2023-05-21T09:22:42;68549.00;;;24.29;49.81
44144;BME280;68165;51.920;4.492;2023-05-21T09:25:11;68545.03;;;24.25;48.99
44144;BME280;68165;51.920;4.492;2023-05-21T09:27:38;68575.34;;;24.50;48.53
44144;BME280;68165;51.920;4.492;2023-05-21T09:30:08;68615.13;;;24.91;47.18
44144;BME280;68165;51.920;4.492;2023-05-21T09:32:35;68671.72;;;25.44;46.15
44144;BME280;68165;51.920;4.492;2023-05-21T09:35:13;68709.84;;;25.73;45.48
44144;BME280;68165;51.920;4.492;2023-05-21T09:37:42;68707.16;;;25.73;44.69
44144;BME280;68165;51.920;4.492;2023-05-21T09:42:34;68711.25;;;25.70;44.30
44144;BME280;68165;51.920;4.492;2023-05-21T09:45:00;68707.44;;;25.69;44.19
44144;BME280;68165;51.920;4.492;2023-05-21T09:47:26;68701.38;;;25.66;44.13
44144;BME280;68165;51.920;4.492;2023-05-21T09:49:51;68680.59;;;25.49;44.50
44144;BME280;68165;51.920;4.492;2023-05-21T09:52:23;68687.22;;;25.53;44.69
44144;BME280;68165;51.920;4.492;2023-05-21T09:54:50;68690.78;;;25.58;44.11
44144;BME280;68165;51.920;4.492;2023-05-21T09:57:23;68699.53;;;25.62;44.05
44144;BME280;68165;51.920;4.492;2023-05-21T09:59:49;68717.72;;;25.80;43.38
44144;BME280;68165;51.920;4.492;2023-05-21T10:02:16;68675.38;;;25.42;44.61
44144;BME280;68165;51.920;4.492;2023-05-21T10:04:43;68676.50;;;25.43;44.86
44144;BME280;68165;51.920;4.492;2023-05-21T10:07:12;68661.28;;;25.30;44.95
44144;BME280;68165;51.920;4.492;2023-05-21T10:09:38;68657.34;;;25.26;44.60
44144;BME280;68165;51.920;4.492;2023-05-21T10:12:04;68656.19;;;25.25;44.79
44144;BME280;68165;51.920;4.492;2023-05-21T10:14:32;68647.31;;;25.19;45.04
44144;BME280;68165;51.920;4.492;2023-05-21T10:16:59;68649.44;;;25.19;44.97
44144;BME280;68165;51.920;4.492;2023-05-21T10:19:25;68639.69;;;25.08;45.26
44144;BME280;68165;51.920;4.492;2023-05-21T10:21:54;68627.41;;;24.99;45.30
44144;BME280;68165;51.920;4.492;2023-05-21T10:24:22;68626.44;;;25.01;45.10
44144;BME280;68165;51.920;4.492;2023-05-21T10:26:48;68640.38;;;25.11;45.22
44144;BME280;68165;51.920;4.492;2023-05-21T10:29:14;68647.31;;;25.10;44.78
44144;BME280;68165;51.920;4.492;2023-05-21T10:31:41;68649.84;;;25.17;44.95
44144;BME280;68165;51.920;4.492;2023-05-21T10:34:13;68643.34;;;25.16;45.16
44144;BME280;68165;51.920;4.492;2023-05-21T10:36:38;68662.97;;;25.31;45.01
44144;BME280;68165;51.920;4.492;2023-05-21T10:39:05;68664.09;;;25.32;44.61
44144;BME280;68165;51.920;4.492;2023-05-21T10:41:37;68662.41;;;25.31;44.65
44144;BME280;68165;51.920;4.492;2023-05-21T10:47:12;68693.47;;;25.58;44.08
44144;BME280;68165;51.920;4.492;2023-05-21T10:50:15;68705.88;;;25.70;43.94
44144;BME280;68165;51.920;4.492;2023-05-21T11:01:08;68700.66;;;25.63;44.05
44144;BME280;68165;51.920;4.492;2023-05-21T11:03:35;68695.00;;;25.57;43.90
44144;BME280;68165;51.920;4.492;2023-05-21T11:06:02;68678.50;;;25.40;44.05
44144;BME280;68165;51.920;4.492;2023-05-21T11:08:30;68662.81;;;25.29;44.09
44144;BME280;68165;51.920;4.492;2023-05-21T11:10:57;68662.81;;;25.29;44.71
44144;BME280;68165;51.920;4.492;2023-05-21T11:13:24;68678.75;;;25.45;44.31
44144;BME280;68165;51.920;4.492;2023-05-21T11:21:10;68756.00;;;26.12;43.25
44144;BME280;68165;51.920;4.492;2023-05-21T11:23:56;68775.66;;;26.27;43.20
44144;BME280;68165;51.920;4.492;2023-05-21T11:26:25;68756.69;;;26.15;43.34
44144;BME280;68165;51.920;4.492;2023-05-21T11:31:29;68711.97;;;25.73;43.77
44144;BME280;68165;51.920;4.492;2023-05-21T11:36:42;68743.72;;;26.04;43.99
44144;BME280;68165;51.920;4.492;2023-05-21T11:39:09;68730.44;;;25.87;44.28
44144;BME280;68165;51.920;4.492;2023-05-21T11:41:59;68732.97;;;25.94;44.06
44144;BME280;68165;51.920;4.492;2023-05-21T11:47:10;68731.28;;;25.92;43.43
44144;BME280;68165;51.920;4.492;2023-05-21T11:49:36;68737.78;;;25.93;43.79
44144;BME280;68165;51.920;4.492;2023-05-21T11:52:03;68726.19;;;25.88;43.40
44144;BME280;68165;51.920;4.492;2023-05-21T11:54:30;68717.59;;;25.78;43.06
44144;BME280;68165;51.920;4.492;2023-05-21T11:57:04;68702.50;;;25.67;43.73
44144;BME280;68165;51.920;4.492;2023-05-21T11:59:33;68712.22;;;25.78;43.77
44144;BME280;68165;51.920;4.492;2023-05-21T12:01:59;68718.28;;;25.81;44.04
44144;BME280;68165;51.920;4.492;2023-05-21T12:04:31;68718.72;;;25.79;43.87
44144;BME280;68165;51.920;4.492;2023-05-21T12:07:03;68713.38;;;25.79;44.38
44144;BME280;68165;51.920;4.492;2023-05-21T12:09:29;68732.97;;;25.94;44.26
44144;BME280;68165;51.920;4.492;2023-05-21T12:11:54;68742.59;;;26.02;44.00
44144;BME280;68165;51.920;4.492;2023-05-21T12:14:20;68745.97;;;26.06;43.86
44144;BME280;68165;51.920;4.492;2023-05-21T12:16:45;68750.91;;;26.08;44.16
44144;BME280;68165;51.920;4.492;2023-05-21T12:19:12;68746.94;;;26.04;44.25
44144;BME280;68165;51.920;4.492;2023-05-21T12:21:41;68738.91;;;25.94;44.35
44144;BME280;68165;51.920;4.492;2023-05-21T12:24:06;68724.94;;;25.84;44.90
44144;BME280;68165;51.920;4.492;2023-05-21T12:26:32;68710.41;;;25.74;45.12
44144;BME280;68165;51.920;4.492;2023-05-21T12:29:00;68733.41;;;25.92;44.75
44144;BME280;68165;51.920;4.492;2023-05-21T12:31:25;68716.75;;;25.82;45.20
44144;BME280;68165;51.920;4.492;2023-05-21T12:33:53;68724.38;;;25.84;45.14
44144;BME280;68165;51.920;4.492;2023-05-21T12:36:29;68716.63;;;25.79;45.81
44144;BME280;68165;51.920;4.492;2023-05-21T12:38:56;68722.81;;;25.85;45.38
44144;BME280;68165;51.920;4.492;2023-05-21T12:41:22;68713.22;;;25.76;45.38
44144;BME280;68165;51.920;4.492;2023-05-21T12:43:48;68720.13;;;25.85;45.44
44144;BME280;68165;51.920;4.492;2023-05-21T12:46:16;68723.97;;;25.86;45.56
44144;BME280;68165;51.920;4.492;2023-05-21T12:48:52;68723.38;;;25.85;45.85
44144;BME280;68165;51.920;4.492;2023-05-21T12:51:19;68715.78;;;25.74;46.36
44144;BME280;68165;51.920;4.492;2023-05-21T12:53:45;68708.72;;;25.72;46.18
44144;BME280;68165;51.920;4.492;2023-05-21T12:56:11;68721.69;;;25.84;46.21
44144;BME280;68165;51.920;4.492;2023-05-21T12:58:37;68736.09;;;25.92;45.81
44144;BME280;68165;51.920;4.492;2023-05-21T13:01:07;68722.81;;;25.85;45.89
44144;BME280;68165;51.920;4.492;2023-05-21T13:03:33;68721.53;;;25.81;45.68
44144;BME280;68165;51.920;4.492;2023-05-21T13:06:09;68725.06;;;25.87;45.90
44144;BME280;68165;51.920;4.492;2023-05-21T13:08:34;68739.47;;;25.95;45.57
44144;BME280;68165;51.920;4.492;2023-05-21T13:11:02;68750.34;;;26.07;45.71
44144;BME280;68165;51.920;4.492;2023-05-21T13:13:28;68748.78;;;26.08;45.87
44144;BME280;68165;51.920;4.492;2023-05-21T13:15:54;68765.03;;;26.20;45.65
44144;BME280;68165;51.920;4.492;2023-05-21T13:18:20;68768.44;;;26.23;45.69
44144;BME280;68165;51.920;4.492;2023-05-21T13:20:47;68758.81;;;26.15;45.43
44144;BME280;68165;51.920;4.492;2023-05-21T13:23:14;68748.34;;;26.10;45.75
44144;BME280;68165;51.920;4.492;2023-05-21T13:25:40;68749.94;;;26.09;45.96
44144;BME280;68165;51.920;4.492;2023-05-21T13:28:06;68752.47;;;26.07;45.77